sensor_id;sensor_type;location;lat;lon;timestamp;P1;durP1;ratioP1;P2;durP2;ratioP2
68025;SDS011;54819;48.030;14.710;2023-02-14T00:01:25;25.20;;;9.20;;
68025;SDS011;54819;48.030;14.710;2023-02-14T00:03:52;22.00;;;8.70;;
68025;SDS011;54819;48.030;14.710;2023-02-14T00:06:20;19.10;;;7.30;;
68025;SDS011;54819;48.030;14.710;2023-02-14T00:08:47;18.00;;;7.40;;
68025;SDS011;54819;48.030;14.710;2023-02-14T00:11:15;18.30;;;7.50;;
68025;SDS011;54819;48.030;14.710;2023-02-14T00:13:42;16.30;;;7.70;;
68025;SDS011;54819;48.030;14.710;2023-02-14T00:16:30;22.50;;;10.20;;
68025;SDS011;54819;48.030;14.710;2023-02-14T00:18:58;21.90;;;9.00;;
68025;SDS011;54819;48.030;14.710;2023-02-14T00:21:33;17.80;;;8.00;;
68025;SDS011;54819;48.030;14.710;2023-02-14T00:24:11;16.00;;;7.80;;
68025;SDS011;54819;48.030;14.710;2023-02-14T00:26:51;17.40;;;8.40;;
68025;SDS011;54819;48.030;14.710;2023-02-14T00:29:22;21.10;;;8.40;;
68025;SDS011;54819;48.030;14.710;2023-02-14T00:31:51;36.80;;;12.90;;
68025;SDS011;54819;48.030;14.710;2023-02-14T00:34:23;35.00;;;12.40;;
68025;SDS011;54819;48.030;14.710;2023-02-14T00:36:50;30.00;;;11.40;;
68025;SDS011;54819;48.030;14.710;2023-02-14T00:39:18;18.50;;;7.30;;
68025;SDS011;54819;48.030;14.710;2023-02-14T00:44:15;27.20;;;8.40;;
68025;SDS011;54819;48.030;14.710;2023-02-14T00:49:10;13.10;;;6.50;;
68025;SDS011;54819;48.030;14.710;2023-02-14T00:51:38;12.90;;;5.90;;
68025;SDS011;54819;48.030;14.710;2023-02-14T00:56:33;13.40;;;4.90;;
68025;SDS011;54819;48.030;14.710;2023-02-14T00:59:00;14.50;;;7.10;;
68025;SDS011;54819;48.030;14.710;2023-02-14T01:01:27;17.30;;;7.10;;
68025;SDS011;54819;48.030;14.710;2023-02-14T01:03:55;21.00;;;8.80;;
68025;SDS011;54819;48.030;14.710;2023-02-14T01:06:27;28.20;;;9.90;;
68025;SDS011;54819;48.030;14.710;2023-02-14T01:08:56;22.80;;;8.80;;
68025;SDS011;54819;48.030;14.710;2023-02-14T01:11:27;28.90;;;10.10;;
68025;SDS011;54819;48.030;14.710;2023-02-14T01:13:56;23.00;;;8.30;;
68025;SDS011;54819;48.030;14.710;2023-02-14T01:16:28;16.60;;;7.50;;
68025;SDS011;54819;48.030;14.710;2023-02-14T01:18:59;15.90;;;7.40;;
68025;SDS011;54819;48.030;14.710;2023-02-14T01:21:32;17.60;;;7.60;;
68025;SDS011;54819;48.030;14.710;2023-02-14T01:24:02;14.30;;;7.30;;
68025;SDS011;54819;48.030;14.710;2023-02-14T01:26:42;14.50;;;6.70;;
68025;SDS011;54819;48.030;14.710;2023-02-14T01:29:12;14.20;;;6.50;;
68025;SDS011;54819;48.030;14.710;2023-02-14T01:31:39;17.00;;;7.80;;
68025;SDS011;54819;48.030;14.710;2023-02-14T01:34:11;17.00;;;7.30;;
68025;SDS011;54819;48.030;14.710;2023-02-14T01:36:38;15.90;;;7.20;;
68025;SDS011;54819;48.030;14.710;2023-02-14T01:39:10;15.70;;;7.40;;
68025;SDS011;54819;48.030;14.710;2023-02-14T01:41:42;13.80;;;6.80;;
68025;SDS011;54819;48.030;14.710;2023-02-14T01:46:45;20.00;;;7.80;;
68025;SDS011;54819;48.030;14.710;2023-02-14T01:49:45;18.00;;;8.40;;
68025;SDS011;54819;48.030;14.710;2023-02-14T01:52:22;24.80;;;9.70;;
68025;SDS011;54819;48.030;14.710;2023-02-14T01:55:05;22.20;;;9.70;;
68025;SDS011;54819;48.030;14.710;2023-02-14T01:57:39;17.30;;;8.90;;
68025;SDS011;54819;48.030;14.710;2023-02-14T02:00:12;17.20;;;8.90;;
68025;SDS011;54819;48.030;14.710;2023-02-14T02:02:59;19.10;;;8.70;;
68025;SDS011;54819;48.030;14.710;2023-02-14T02:05:27;18.50;;;8.10;;
68025;SDS011;54819;48.030;14.710;2023-02-14T02:07:56;16.60;;;7.40;;
68025;SDS011;54819;48.030;14.710;2023-02-14T02:10:27;16.80;;;7.40;;
68025;SDS011;54819;48.030;14.710;2023-02-14T02:15:25;14.00;;;5.60;;
68025;SDS011;54819;48.030;14.710;2023-02-14T02:42:12;19.50;;;8.50;;
68025;SDS011;54819;48.030;14.710;2023-02-14T02:47:45;26.40;;;9.50;;
68025;SDS011;54819;48.030;14.710;2023-02-14T02:50:31;17.70;;;8.20;;
68025;SDS011;54819;48.030;14.710;2023-02-14T02:53:32;19.00;;;8.60;;
68025;SDS011;54819;48.030;14.710;2023-02-14T02:56:31;17.00;;;6.80;;
68025;SDS011;54819;48.030;14.710;2023-02-14T03:02:00;14.70;;;6.90;;
68025;SDS011;54819;48.030;14.710;2023-02-14T03:04:31;15.20;;;7.20;;
68025;SDS011;54819;48.030;14.710;2023-02-14T03:10:16;14.20;;;6.80;;
68025;SDS011;54819;48.030;14.710;2023-02-14T03:22:28;17.30;;;7.20;;
68025;SDS011;54819;48.030;14.710;2023-02-14T03:25:19;30.30;;;11.30;;
68025;SDS011;54819;48.030;14.710;2023-02-14T03:28:18;28.60;;;11.00;;
68025;SDS011;54819;48.030;14.710;2023-02-14T03:31:03;29.80;;;11.60;;
68025;SDS011;54819;48.030;14.710;2023-02-14T03:33:49;23.70;;;10.20;;
68025;SDS011;54819;48.030;14.710;2023-02-14T03:36:40;21.70;;;9.10;;
68025;SDS011;54819;48.030;14.710;2023-02-14T03:39:39;15.90;;;7.50;;
68025;SDS011;54819;48.030;14.710;2023-02-14T03:42:32;14.30;;;6.90;;
68025;SDS011;54819;48.030;14.710;2023-02-14T03:45:06;13.80;;;7.00;;
68025;SDS011;54819;48.030;14.710;2023-02-14T03:47:39;11.90;;;6.20;;
68025;SDS011;54819;48.030;14.710;2023-02-14T03:50:13;13.00;;;5.60;;
68025;SDS011;54819;48.030;14.710;2023-02-14T03:52:43;13.00;;;6.20;;
68025;SDS011;54819;48.030;14.710;2023-02-14T03:55:19;13.90;;;6.50;;
68025;SDS011;54819;48.030;14.710;2023-02-14T03:58:08;15.90;;;7.50;;
68025;SDS011;54819;48.030;14.710;2023-02-14T04:00:43;14.70;;;6.60;;
68025;SDS011;54819;48.030;14.710;2023-02-14T04:03:14;13.80;;;6.60;;
68025;SDS011;54819;48.030;14.710;2023-02-14T04:05:44;20.10;;;8.30;;
68025;SDS011;54819;48.030;14.710;2023-02-14T04:08:27;21.70;;;9.90;;
68025;SDS011;54819;48.030;14.710;2023-02-14T04:10:57;21.20;;;9.70;;
68025;SDS011;54819;48.030;14.710;2023-02-14T04:13:28;22.30;;;9.70;;
68025;SDS011;54819;48.030;14.710;2023-02-14T04:15:56;17.50;;;8.60;;
68025;SDS011;54819;48.030;14.710;2023-02-14T04:18:23;17.30;;;7.60;;
68025;SDS011;54819;48.030;14.710;2023-02-14T04:21:09;17.90;;;8.20;;
68025;SDS011;54819;48.030;14.710;2023-02-14T04:23:37;15.30;;;7.00;;
68025;SDS011;54819;48.030;14.710;2023-02-14T04:26:04;16.20;;;7.40;;
68025;SDS011;54819;48.030;14.710;2023-02-14T04:28:32;13.70;;;7.10;;
